Time,TemperatureF,DewpointF,PressureIn,WindDirection,WindDirectionDegrees,WindSpeedMPH,WindSpeedGustMPH,Humidity,HourlyPrecipIn,Conditions,Clouds,dailyrainin,SolarRadiationWatts/m^2,SoftwareType,DateUTC
2013-05-02 00:00:00,67.0,57.0,-100.00,East,90,3.0,-999.0,69,-99.99,,,-99.99,0.000000,,2013-05-02 04:00:00,
2013-05-02 00:43:00,67.0,57.0,-100.00,East,90,3.0,-999.0,69,-99.99,,,-99.99,0.000000,,2013-05-02 04:43:00,
2013-05-02 00:52:00,67.0,57.0,-100.00,East,90,3.0,-999.0,69,-99.99,,,-99.99,0.000000,,2013-05-02 04:52:00,
2013-05-02 01:00:00,65.0,56.0,-100.00,East,90,3.0,-999.0,72,-99.99,,,-99.99,0.000000,,2013-05-02 05:00:00,
2013-05-02 01:42:00,65.0,56.0,-100.00,East,90,3.0,-999.0,72,-99.99,,,-99.99,0.000000,,2013-05-02 05:42:00,
2013-05-02 01:52:00,65.0,56.0,-100.00,East,90,3.0,-999.0,72,-99.99,,,-99.99,0.000000,,2013-05-02 05:52:00,
2013-05-02 04:00:00,58.0,54.0,-100.00,East,90,1.0,-999.0,88,-99.99,,,-99.99,0.000000,,2013-05-02 08:00:00,
2013-05-02 04:42:00,58.0,54.0,-100.00,East,90,1.0,-999.0,88,-99.99,,,-99.99,0.000000,,2013-05-02 08:42:00,
2013-05-02 04:52:00,58.0,54.0,-100.00,East,90,1.0,-999.0,88,-99.99,,,-99.99,0.000000,,2013-05-02 08:52:00,
2013-05-02 05:00:00,57.0,55.0,-100.00,NE,45,0.0,-999.0,93,-99.99,,,-99.99,0.000000,,2013-05-02 09:00:00,
2013-05-02 05:43:00,57.0,55.0,-100.00,NE,45,0.0,-999.0,93,-99.99,,,-99.99,0.000000,,2013-05-02 09:43:00,
2013-05-02 05:52:00,57.0,55.0,-100.00,NE,45,0.0,-999.0,93,-99.99,,,-99.99,0.000000,,2013-05-02 09:52:00,
2013-05-02 06:00:00,56.0,55.0,-100.00,NE,45,0.0,-999.0,94,-99.99,,,-99.99,0.000000,,2013-05-02 10:00:00,
2013-05-02 06:42:00,56.0,55.0,-100.00,NE,45,0.0,-999.0,94,-99.99,,,-99.99,0.000000,,2013-05-02 10:42:00,
2013-05-02 06:53:00,56.0,55.0,-100.00,NE,45,0.0,-999.0,94,-99.99,,,-99.99,0.000000,,2013-05-02 10:53:00,
2013-05-02 07:00:00,56.0,54.0,-100.00,East,90,1.0,-999.0,94,-99.99,,,-99.99,6.960000,,2013-05-02 11:00:00,
2013-05-02 07:42:00,56.0,54.0,-100.00,East,90,1.0,-999.0,94,-99.99,,,-99.99,6.960000,,2013-05-02 11:42:00,
2013-05-02 07:52:00,56.0,54.0,-100.00,East,90,1.0,-999.0,94,-99.99,,,-99.99,6.960000,,2013-05-02 11:52:00,
2013-05-02 09:00:00,65.0,56.0,-100.00,SE,135,4.0,-999.0,72,-99.99,,,-99.99,233.160004,,2013-05-02 13:00:00,
2013-05-02 09:42:00,65.0,56.0,-100.00,SE,135,4.0,-999.0,72,-99.99,,,-99.99,233.160004,,2013-05-02 13:42:00,
2013-05-02 09:52:00,65.0,56.0,-100.00,SE,135,4.0,-999.0,72,-99.99,,,-99.99,233.160004,,2013-05-02 13:52:00,
2013-05-02 10:00:00,69.0,56.0,-100.00,SSE,157,5.0,-999.0,63,-99.99,,,-99.99,407.160004,,2013-05-02 14:00:00,
2013-05-02 10:43:00,69.0,56.0,-100.00,SSE,157,5.0,-999.0,63,-99.99,,,-99.99,407.160004,,2013-05-02 14:43:00,
2013-05-02 10:52:00,69.0,56.0,-100.00,SSE,157,5.0,-999.0,63,-99.99,,,-99.99,407.160004,,2013-05-02 14:52:00,
2013-05-02 11:00:00,72.0,58.0,-100.00,South,180,4.0,-999.0,60,-99.99,,,-99.99,545.200012,,2013-05-02 15:00:00,
2013-05-02 11:43:00,72.0,58.0,-100.00,South,180,4.0,-999.0,60,-99.99,,,-99.99,545.200012,,2013-05-02 15:43:00,
2013-05-02 12:00:00,75.0,58.0,-100.00,South,180,5.0,-999.0,55,-99.99,,,-99.99,673.960022,,2013-05-02 16:00:00,
2013-05-02 12:43:00,75.0,58.0,-100.00,South,180,5.0,-999.0,55,-99.99,,,-99.99,673.960022,,2013-05-02 16:43:00,
2013-05-02 12:52:00,75.0,58.0,-100.00,South,180,5.0,-999.0,55,-99.99,,,-99.99,673.960022,,2013-05-02 16:52:00,
2013-05-02 13:00:00,77.0,57.0,-100.00,South,180,4.0,-999.0,51,-99.99,,,-99.99,766.760010,,2013-05-02 17:00:00,
2013-05-02 13:42:00,77.0,57.0,-100.00,South,180,4.0,-999.0,51,-99.99,,,-99.99,766.760010,,2013-05-02 17:42:00,
2013-05-02 13:52:00,77.0,57.0,-100.00,South,180,4.0,-999.0,51,-99.99,,,-99.99,766.760010,,2013-05-02 17:52:00,
2013-05-02 14:00:00,78.0,57.0,-100.00,SSE,157,5.0,-999.0,48,-99.99,,,-99.99,625.239990,,2013-05-02 18:00:00,
2013-05-02 14:42:00,78.0,57.0,-100.00,SSE,157,5.0,-999.0,48,-99.99,,,-99.99,625.239990,,2013-05-02 18:42:00,
2013-05-02 14:52:00,78.0,57.0,-100.00,SSE,157,5.0,-999.0,48,-99.99,,,-99.99,625.239990,,2013-05-02 18:52:00,
2013-05-02 15:00:00,79.0,56.0,-100.00,SSE,157,6.0,-999.0,44,-99.99,,,-99.99,827.080017,,2013-05-02 19:00:00,
2013-05-02 15:42:00,79.0,56.0,-100.00,SSE,157,6.0,-999.0,44,-99.99,,,-99.99,827.080017,,2013-05-02 19:42:00,
2013-05-02 15:52:00,79.0,56.0,-100.00,SSE,157,6.0,-999.0,44,-99.99,,,-99.99,827.080017,,2013-05-02 19:52:00,
2013-05-02 16:00:00,79.0,54.0,-100.00,SSE,157,7.0,-999.0,42,-99.99,,,-99.99,606.679993,,2013-05-02 20:00:00,
2013-05-02 16:42:00,79.0,54.0,-100.00,SSE,157,7.0,-999.0,42,-99.99,,,-99.99,606.679993,,2013-05-02 20:42:00,
2013-05-02 16:52:00,79.0,54.0,-100.00,SSE,157,7.0,-999.0,42,-99.99,,,-99.99,606.679993,,2013-05-02 20:52:00,
2013-05-02 17:00:00,79.0,53.0,-100.00,SE,135,8.0,-999.0,41,-99.99,,,-99.99,504.600006,,2013-05-02 21:00:00,
2013-05-02 17:42:00,79.0,53.0,-100.00,SE,135,8.0,-999.0,41,-99.99,,,-99.99,504.600006,,2013-05-02 21:42:00,
2013-05-02 17:53:00,79.0,53.0,-100.00,SE,135,8.0,-999.0,41,-99.99,,,-99.99,504.600006,,2013-05-02 21:53:00,
2013-05-02 18:00:00,78.0,52.0,-100.00,SE,135,7.0,-999.0,41,-99.99,,,-99.99,317.839996,,2013-05-02 22:00:00,
2013-05-02 18:42:00,78.0,52.0,-100.00,SE,135,7.0,-999.0,41,-99.99,,,-99.99,317.839996,,2013-05-02 22:42:00,
2013-05-02 18:53:00,78.0,52.0,-100.00,SE,135,7.0,-999.0,41,-99.99,,,-99.99,317.839996,,2013-05-02 22:53:00,
2013-05-02 19:00:00,77.0,51.0,-100.00,SE,135,8.0,-999.0,40,-99.99,,,-99.99,247.080002,,2013-05-02 23:00:00,
2013-05-02 19:42:00,77.0,51.0,-100.00,SE,135,8.0,-999.0,40,-99.99,,,-99.99,247.080002,,2013-05-02 23:42:00,
2013-05-02 19:52:00,77.0,51.0,-100.00,SE,135,8.0,-999.0,40,-99.99,,,-99.99,247.080002,,2013-05-02 23:52:00,
2013-05-02 21:00:00,72.0,53.0,-100.00,SE,135,6.0,-999.0,50,-99.99,,,-99.99,16.240000,,2013-05-03 01:00:00,
2013-05-02 21:42:00,72.0,53.0,-100.00,SE,135,6.0,-999.0,50,-99.99,,,-99.99,16.240000,,2013-05-03 01:42:00,
2013-05-02 21:52:00,72.0,53.0,-100.00,SE,135,6.0,-999.0,50,-99.99,,,-99.99,16.240000,,2013-05-03 01:52:00,
2013-05-02 22:00:00,68.0,53.0,-100.00,SSE,157,3.0,-999.0,57,-99.99,,,-99.99,0.000000,,2013-05-03 02:00:00,
2013-05-02 22:42:00,68.0,53.0,-100.00,SSE,157,3.0,-999.0,57,-99.99,,,-99.99,0.000000,,2013-05-03 02:42:00,
2013-05-02 22:52:00,68.0,53.0,-100.00,SSE,157,3.0,-999.0,57,-99.99,,,-99.99,0.000000,,2013-05-03 02:52:00,
2013-05-02 23:00:00,65.0,53.0,-100.00,ESE,112,3.0,-999.0,65,-99.99,,,-99.99,0.000000,,2013-05-03 03:00:00,
2013-05-02 23:43:00,65.0,53.0,-100.00,ESE,112,3.0,-999.0,65,-99.99,,,-99.99,0.000000,,2013-05-03 03:43:00,
2013-05-02 23:53:00,65.0,53.0,-100.00,ESE,112,3.0,-999.0,65,-99.99,,,-99.99,0.000000,,2013-05-03 03:53:00,